• Join FlightAware (Why Join?)
  • Login
  • US Flag 
05:54PM EDT


 

Airport Tracker/Info


-or-


 

Live Flight TrackerFlight Track Log ✈ TRS679 ✈ 17-Apr-2013 ✈ KATL - KRDU

Flight Track Log - Related Links

Times and Time Zones

All times are in EDT time to prevent confusion due to time zone crossing. See the TRS679 flight status page for this flight to view local times or setup timezone preferences in your user account.

Time Position Orientation Groundspeed Altitude Reporting Facility
EDT Latitude Longitude Course Direction KTS MPH feet Rate Location/Type
05:33PM 33.6331 -84.3831 118° Southeast 456 525 2,700  Level Atlanta Center
05:34PM 33.6333 -84.3333 90° East 240 276 3,400 2,400 Climbing Atlanta TRACON
05:35PM 33.6333 -84.2500 90° East 267 307 6,200 3,120 Climbing Atlanta TRACON
05:36PM 33.6333 -84.1667 90° East 274 315 9,400 2,640 Climbing Atlanta TRACON
05:36PM 33.6336 -84.1086 90° East 279 321 10,300 1,380 Climbing Atlanta Center
05:37PM 33.6147 -84.0064 102° East 323 372 11,600 2,100 Climbing Atlanta Center
05:38PM 33.5939 -83.8867 102° East 349 402 14,500 2,700 Climbing Atlanta Center
05:39PM 33.6065 -83.7814 118° Southeast  Level FlightAware Approximate
05:39PM 33.5706 -83.7669 103° East 360 414 17,000  Level Atlanta Center
05:40PM 33.5514 -83.6450 101° East 366 421 19,000 1,560 Climbing Atlanta Center
05:41PM 33.5636 -83.5103 84° East 388 447 20,200 1,500 Climbing Atlanta Center
05:42PM 33.5794 -83.3631 83° East 413 475 22,000 1,380 Climbing Atlanta Center
05:43PM 33.5933 -83.2333 83° East 434 499 23,000 900 Climbing Atlanta Center
05:44PM 33.6111 -83.0833 82° East 445 512 23,800 1,140 Climbing Atlanta Center
05:45PM 33.6286 -82.9336 82° East 452 520 25,300 1,320 Climbing Atlanta Center
05:46PM 33.6439 -82.7786 83° East 457 526 26,500 1,260 Climbing Atlanta Center
05:48PM 33.6689 -82.4958 84° East 483 556 29,000 840 Climbing Jacksonville Center
05:49PM 33.6869 -82.3258 83° East 493 567 29,000  Level Jacksonville Center
05:50PM 33.7050 -82.1711 82° East 488 562 29,000  Level Jacksonville Center
05:51PM 33.7269 -82.0161 80° East 477 549 29,000  Level Jacksonville Center
05:52PM 33.7550 -81.8583 78° East 477 549 29,000  Level Jacksonville Center
05:53PM 33.8269 -81.7300 56° Northeast 459 528 29,000 -360 Level Jacksonville Center
05:54PM 33.9111 -81.5889 54° Northeast 459 528 28,300 -780 Descending Jacksonville Center
05:55PM 33.9869 -81.4625 54° Northeast 464 534 27,500 -660 Descending Jacksonville Center
05:56PM 34.0606 -81.3333 55° Northeast 469 540 27,000 -300 Descending Jacksonville Center
05:57PM 34.1361 -81.2067 54° Northeast 469 540 27,000 -480 Level Jacksonville Center
05:58PM 34.2053 -81.0797 57° Northeast 464 534 26,100 -900 Descending Jacksonville Center
05:59PM 34.2703 -80.9703 54° Northeast 457 526 25,200 -1,020 Descending Jacksonville Center
06:00PM 34.3353 -80.8558 55° Northeast 423 487 24,100 -600 Descending Jacksonville Center
06:01PM 34.4003 -80.7436 55° Northeast 412 474 24,000 -420 Descending Jacksonville Center
06:03PM 34.5319 -80.5053 56° Northeast 415 478 23,000 -360 Descending Washington Center
06:04PM 34.5992 -80.3883 55° Northeast 423 487 23,000  Level Washington Center
06:05PM 34.6622 -80.2758 56° Northeast 406 467 23,000  Level Washington Center
06:06PM 34.7250 -80.1606 56° Northeast 397 457 23,000  Level Washington Center
06:07PM 34.7872 -80.0581 54° Northeast 417 480 23,000  Level Washington Center
06:08PM 34.8697 -79.9714 41° Northeast 394 453 23,000  Level Washington Center
06:09PM 34.9525 -79.8794 42° Northeast 394 453 23,000  Level Washington Center
06:10PM 35.0331 -79.7875 43° Northeast 394 453 23,000  Level Washington Center
06:11PM 35.1153 -79.7003 41° Northeast 394 453 23,000 -780 Level Washington Center
06:12PM 35.1997 -79.6081 42° Northeast 394 453 21,500 -1,620 Descending Washington Center
06:13PM 35.2856 -79.5411 32° Northeast 389 448 19,800 -1,740 Descending Washington Center
06:14PM 35.3644 -79.4914 27° Northeast 357 411 18,400 -1,560 Descending Washington Center
06:15PM 35.4497 -79.4294 31° Northeast 322 371 17,000 -1,440 Descending Washington Center
06:16PM 35.5186 -79.3664 37° Northeast 316 364 15,600 -1,560 Descending Washington Center
06:17PM 35.5714 -79.2769 54° Northeast 320 368 13,900 -1,680 Descending Washington Center
06:18PM 35.6242 -79.1900 53° Northeast 318 366 12,300 -1,440 Descending Washington Center
06:19PM 35.6814 -79.0928 54° Northeast 313 360 10,800 -1,200 Descending Washington Center
06:20PM 35.7272 -79.0231 51° Northeast 298 343 9,800 -1,140 Descending Washington Center
06:21PM 35.7789 -78.9614 44° Northeast 257 296 8,700 -1,140 Descending Washington Center
06:21PM 35.7789 -78.9614 44° Northeast 278 320 8,700 -1,020 Level Washington Center
06:22PM 35.8406 -78.9281 24° Northeast 240 276 7,700 -1,080 Descending Washington Center
06:23PM 35.9019 -78.8922 25° Northeast 240 276 6,700 -840 Descending Washington Center
06:24PM 35.9514 -78.8378 42° Northeast 234 269 6,000 -900 Descending Washington Center
06:25PM 36.0028 -78.7861 39° Northeast 234 269 4,900 -1,440 Descending Washington Center
06:26PM 36.0025 -78.7219 90° East 221 254 3,100 -1,440 Descending Washington Center
06:27PM 35.9533 -78.6892 152° Southeast 213 245 2,000 -840 Descending Washington Center
06:28PM 35.9144 -78.7364 225° Southwest 186 214 1,500 -720 Descending Washington Center
06:29PM 35.8822 -78.7733 223° Southwest 135 155 600 -900 Descending Washington Center
06:31PM 35.8667 -78.7833 51° Northeast  Level FlightAware Approximate
06:38PM 35.8776 -78.7875 51° Northeast  Level Estimated
06:39PM 35.8776 -78.7875 51° Northeast  Level Estimated